Time;durP1;ratioP1;P1;durP2;ratioP2;P2;SDS_P1;SDS_P2;PMS_P1;PMS_P2;Temp;Humidity;BMP_temperature;BMP_pressure;BME280_temperature;BME280_humidity;BME280_pressure;Samples;Min_cycle;Max_cycle;Signal;HPM_P1;HPM_P2
2020/12/06 06:01:52;;;;;;;50.47;24.27;;;4.40;99.90;;;;;;5762747;23;20037;-82
2020/12/06 06:04:22;;;;;;;49.47;24.00;;;4.60;99.90;;;;;;5055857;28;20330;-81
2020/12/06 06:06:51;;;;;;;49.15;24.23;;;4.70;99.90;;;;;;5056440;28;20050;-82
2020/12/06 06:09:20;;;;;;;51.65;23.58;;;4.60;99.90;;;;;;5055423;28;20049;-81
2020/12/06 06:12:00;;;;;;;53.15;25.98;;;4.60;99.90;;;;;;5053816;28;20670;-80
2020/12/06 06:14:30;;;;;;;51.03;24.15;;;4.60;99.90;;;;;;5049404;28;20058;-82
2020/12/06 06:16:59;;;;;;;49.40;24.55;;;4.40;99.90;;;;;;5048605;28;20076;-81
2020/12/06 06:19:26;;;;;;;48.80;24.70;;;4.30;99.90;;;;;;5049311;28;20049;-82
2020/12/06 06:21:53;;;;;;;50.72;24.83;;;4.40;99.90;;;;;;5045908;28;20053;-81
2020/12/06 06:24:24;;;;;;;49.22;23.40;;;4.40;99.90;;;;;;5049528;28;20045;-82
2020/12/06 06:26:52;;;;;;;47.92;23.20;;;4.50;99.90;;;;;;5032072;28;20045;-82
2020/12/06 06:29:21;;;;;;;45.90;23.80;;;4.60;99.90;;;;;;5052489;28;20050;-83
2020/12/06 06:31:51;;;;;;;49.47;23.55;;;4.60;99.90;;;;;;5050717;28;20049;-83
2020/12/06 06:34:24;;;;;;;50.50;24.95;;;4.60;99.90;;;;;;5052161;28;20072;-82
2020/12/06 06:36:53;;;;;;;49.92;24.25;;;4.80;99.90;;;;;;5051900;28;20053;-82
2020/12/06 06:39:21;;;;;;;47.60;25.08;;;4.70;99.90;;;;;;5047175;28;20072;-79
2020/12/06 06:42:04;;;;;;;44.70;23.40;;;4.90;99.90;;;;;;5044521;28;20077;-79
2020/12/06 06:47:09;;;;;;;47.95;24.67;;;4.80;99.90;;;;;;5234421;22;19925;-82
2020/12/06 06:49:54;;;;;;;47.47;23.25;;;4.80;99.90;;;;;;5058385;28;20034;-83
2020/12/06 06:54:58;;;;;;;46.92;23.02;;;4.80;99.90;;;;;;5145786;22;20057;-79
2020/12/06 06:57:28;;;;;;;51.22;25.95;;;4.80;99.90;;;;;;5053030;28;20057;-80
2020/12/06 06:59:56;;;;;;;50.53;23.80;;;4.70;99.90;;;;;;5054964;28;20053;-80
2020/12/06 07:02:41;;;;;;;48.53;23.88;;;4.70;99.90;;;;;;5055578;28;20041;-80
2020/12/06 07:05:21;;;;;;;46.42;23.52;;;4.70;99.90;;;;;;5057003;28;20063;-80
2020/12/06 07:07:50;;;;;;;46.35;22.35;;;4.70;99.90;;;;;;5056516;28;20056;-81
2020/12/06 07:10:20;;;;;;;45.40;22.73;;;4.80;99.90;;;;;;5056067;28;20060;-80
2020/12/06 07:12:52;;;;;;;43.88;21.92;;;4.80;99.90;;;;;;5050665;28;20057;-79
2020/12/06 07:15:21;;;;;;;42.70;21.45;;;4.90;99.90;;;;;;5024682;28;20085;-80
2020/12/06 07:17:49;;;;;;;42.47;22.85;;;4.80;99.90;;;;;;5006583;28;20042;-80
2020/12/06 07:20:19;;;;;;;43.58;22.05;;;4.90;99.90;;;;;;5037797;28;20058;-80
2020/12/06 07:22:47;;;;;;;40.03;22.05;;;4.90;99.90;;;;;;5015065;28;20053;-80
2020/12/06 07:25:16;;;;;;;43.75;22.40;;;5.00;99.90;;;;;;5015020;28;20060;-80
2020/12/06 07:27:44;;;;;;;41.53;22.08;;;4.90;99.90;;;;;;5050816;28;20052;-79
2020/12/06 07:30:12;;;;;;;39.80;21.45;;;5.00;99.90;;;;;;5047997;28;20080;-80
2020/12/06 07:32:39;;;;;;;43.95;22.17;;;5.00;99.90;;;;;;5045849;28;20112;-80
2020/12/06 07:35:09;;;;;;;46.85;23.13;;;5.10;99.90;;;;;;5043824;28;20088;-79
2020/12/06 07:37:40;;;;;;;43.60;21.77;;;5.10;99.90;;;;;;5043256;28;20045;-77
2020/12/06 07:40:09;;;;;;;41.60;22.05;;;5.00;99.90;;;;;;5042133;28;20542;-77
2020/12/06 07:42:36;;;;;;;41.28;21.77;;;5.00;99.90;;;;;;5043115;28;20081;-80
2020/12/06 07:45:05;;;;;;;43.70;22.35;;;5.10;99.90;;;;;;5045821;28;20073;-77
2020/12/06 07:47:32;;;;;;;40.60;19.95;;;5.10;99.90;;;;;;5030388;28;20109;-80
2020/12/06 07:50:01;;;;;;;44.83;21.60;;;5.10;99.90;;;;;;5035202;28;20080;-79
2020/12/06 07:52:32;;;;;;;42.13;20.42;;;5.10;99.90;;;;;;5054134;28;20068;-81
2020/12/06 07:55:02;;;;;;;42.83;21.48;;;5.10;99.90;;;;;;5021888;28;20058;-83
2020/12/06 07:57:43;;;;;;;42.30;20.33;;;5.00;99.90;;;;;;5015031;28;20085;-82
2020/12/06 08:00:12;;;;;;;38.28;19.45;;;5.10;99.90;;;;;;5032813;28;20085;-82
2020/12/06 08:02:44;;;;;;;41.67;20.13;;;5.10;99.90;;;;;;5031486;28;20085;-83
2020/12/06 08:05:18;;;;;;;41.55;19.77;;;5.10;99.90;;;;;;5041955;28;20089;-81
2020/12/06 08:07:48;;;;;;;40.33;18.73;;;5.00;99.90;;;;;;5051053;28;20069;-80
2020/12/06 08:10:19;;;;;;;40.78;19.45;;;4.90;99.90;;;;;;5048138;28;20073;-81
2020/12/06 08:12:50;;;;;;;41.33;20.38;;;5.10;99.90;;;;;;5055816;28;20049;-81
2020/12/06 08:15:16;;;;;;;41.50;19.20;;;5.00;99.90;;;;;;5039693;28;20045;-81
2020/12/06 08:17:48;;;;;;;41.35;19.33;;;5.10;99.90;;;;;;5054889;28;20056;-82
2020/12/06 08:20:17;;;;;;;38.30;19.10;;;4.90;99.90;;;;;;5054142;28;20073;-81
2020/12/06 08:23:00;;;;;;;40.22;19.60;;;4.90;99.90;;;;;;5055748;28;20029;-81
2020/12/06 08:25:34;;;;;;;42.72;19.77;;;4.90;99.90;;;;;;5055331;28;20100;-78
2020/12/06 08:30:45;;;;;;;41.95;19.55;;;4.70;99.90;;;;;;5032234;22;20507;-80
2020/12/06 08:33:12;;;;;;;43.67;18.85;;;4.70;99.90;;;;;;5023516;28;20053;-78
2020/12/06 08:35:41;;;;;;;45.72;19.52;;;4.80;99.90;;;;;;5003631;28;20046;-79
2020/12/06 08:38:17;;;;;;;41.10;18.95;;;4.90;99.90;;;;;;5021543;28;20049;-79
2020/12/06 08:41:01;;;;;;;38.83;19.13;;;4.90;99.90;;;;;;5021913;28;20106;-78
2020/12/06 08:43:45;;;;;;;40.03;19.52;;;4.90;99.90;;;;;;5020140;28;20069;-79
2020/12/06 08:46:13;;;;;;;41.33;19.10;;;4.90;99.90;;;;;;5022334;28;20056;-78
2020/12/06 08:48:41;;;;;;;40.22;19.10;;;4.90;99.90;;;;;;5022641;28;20125;-81
2020/12/06 08:51:26;;;;;;;42.25;19.80;;;4.90;99.90;;;;;;5028557;28;20053;-81
2020/12/06 08:53:53;;;;;;;41.03;18.58;;;4.90;99.90;;;;;;5023146;28;20050;-80
2020/12/06 08:56:42;;;;;;;39.78;18.80;;;4.80;99.90;;;;;;5026054;28;20069;-81
2020/12/06 08:59:13;;;;;;;39.67;19.38;;;4.80;99.90;;;;;;5023635;28;20073;-80
2020/12/06 09:01:50;;;;;;;39.85;18.83;;;4.80;99.90;;;;;;5025651;28;20137;-80
2020/12/06 09:04:18;;;;;;;35.70;18.38;;;4.80;99.90;;;;;;5033349;28;20069;-81
2020/12/06 09:06:45;;;;;;;39.72;18.42;;;4.70;99.90;;;;;;5036011;28;20050;-82
2020/12/06 09:09:12;;;;;;;37.42;17.95;;;4.80;99.90;;;;;;5035589;28;20057;-82
2020/12/06 09:16:52;;;;;;;34.92;17.05;;;4.90;99.90;;;;;;5159590;22;20033;-81
2020/12/06 09:42:40;;;;;;;30.05;15.48;;;4.80;99.90;;;;;;5528413;22;20415;-80
2020/12/06 09:45:07;;;;;;;30.85;15.98;;;4.90;99.90;;;;;;5033589;28;20089;-81
2020/12/06 09:47:34;;;;;;;31.05;16.25;;;4.90;99.90;;;;;;5051123;28;20045;-82
2020/12/06 09:50:01;;;;;;;33.13;16.13;;;4.80;99.90;;;;;;5049285;28;20113;-81
2020/12/06 09:52:30;;;;;;;34.13;16.25;;;4.80;99.90;;;;;;5049709;28;20069;-82
2020/12/06 09:55:04;;;;;;;31.10;15.68;;;4.80;99.90;;;;;;5050976;28;20072;-82
2020/12/06 09:57:31;;;;;;;32.05;16.17;;;4.70;99.90;;;;;;5050395;28;20053;-81
2020/12/06 09:59:59;;;;;;;31.77;16.63;;;4.70;99.90;;;;;;5048489;28;20487;-81
2020/12/06 10:05:01;;;;;;;29.08;15.48;;;4.50;99.90;;;;;;5757050;22;20045;-86
2020/12/06 10:15:16;;;;;;;25.10;14.02;;;4.60;99.90;;;;;;5732154;22;20049;-82
2020/12/06 10:17:43;;;;;;;28.40;14.40;;;4.60;99.90;;;;;;5055157;28;20050;-82
2020/12/06 10:20:10;;;;;;;25.52;14.18;;;4.50;99.90;;;;;;5055005;28;20087;-82
2020/12/06 10:22:37;;;;;;;25.15;14.45;;;4.90;99.90;;;;;;5039714;28;20050;-82
2020/12/06 10:25:06;;;;;;;28.92;15.48;;;4.70;99.90;;;;;;5055024;28;20029;-84
2020/12/06 10:27:34;;;;;;;23.90;13.93;;;4.60;99.90;;;;;;5051438;28;20095;-81
2020/12/06 10:30:01;;;;;;;26.33;14.15;;;4.60;99.90;;;;;;5051764;28;20050;-82
2020/12/06 10:32:33;;;;;;;27.38;14.25;;;4.60;99.90;;;;;;5050242;28;20041;-79
2020/12/06 10:35:02;;;;;;;27.23;15.20;;;4.50;99.90;;;;;;5059786;28;20140;-82
2020/12/06 10:37:28;;;;;;;31.65;16.35;;;4.50;99.90;;;;;;5060394;28;20034;-82
2020/12/06 10:39:55;;;;;;;25.65;14.52;;;4.60;99.90;;;;;;5058357;28;20079;-81
2020/12/06 10:47:30;;;;;;;26.75;14.57;;;4.60;99.90;;;;;;5393452;22;20026;-82
2020/12/06 10:55:07;;;;;;;24.02;12.98;;;4.80;99.90;;;;;;5655225;22;20235;-79
2020/12/06 11:02:50;;;;;;;23.27;12.90;;;4.70;99.90;;;;;;5686705;22;20051;-82
2020/12/06 11:05:18;;;;;;;21.88;13.18;;;4.80;99.90;;;;;;5057922;28;20057;-79
2020/12/06 11:10:13;;;;;;;21.05;12.65;;;4.70;99.90;;;;;;5038823;28;20042;-81
2020/12/06 11:12:40;;;;;;;25.20;14.00;;;4.80;99.90;;;;;;5036421;28;20034;-80
2020/12/06 11:17:42;;;;;;;22.27;13.20;;;4.80;99.90;;;;;;5673766;22;20052;-79
2020/12/06 11:20:10;;;;;;;22.65;12.70;;;4.80;99.90;;;;;;5056260;28;20072;-80
2020/12/06 11:22:38;;;;;;;22.02;12.25;;;4.80;99.90;;;;;;5040950;28;20049;-81
2020/12/06 11:25:04;;;;;;;19.70;12.35;;;4.90;99.90;;;;;;5055252;28;20080;-81
2020/12/06 11:27:31;;;;;;;22.42;12.35;;;4.90;99.90;;;;;;5056040;28;20042;-82
2020/12/06 11:29:58;;;;;;;22.00;12.73;;;4.90;99.90;;;;;;5055026;28;20053;-80
2020/12/06 11:32:26;;;;;;;19.42;11.30;;;4.90;99.90;;;;;;5036348;28;20049;-82
2020/12/06 11:34:52;;;;;;;19.10;11.95;;;5.10;99.90;;;;;;5060633;28;20040;-83
2020/12/06 11:37:20;;;;;;;22.48;11.95;;;5.30;99.90;;;;;;5060389;28;20068;-83
2020/12/06 11:39:47;;;;;;;20.25;11.43;;;5.30;99.90;;;;;;5060453;28;20034;-83
2020/12/06 11:42:18;;;;;;;19.48;10.82;;;5.30;99.90;;;;;;5060650;28;20029;-84
2020/12/06 11:44:45;;;;;;;18.33;10.30;;;5.50;99.90;;;;;;5060834;28;20030;-82
2020/12/06 11:47:15;;;;;;;18.40;10.73;;;5.60;99.90;;;;;;5060875;28;20053;-81
2020/12/06 11:49:42;;;;;;;17.55;10.43;;;5.40;99.90;;;;;;5060896;28;20033;-82
2020/12/06 11:52:09;;;;;;;18.05;10.45;;;5.60;99.90;;;;;;5057970;28;20076;-81
2020/12/06 11:54:37;;;;;;;17.55;10.57;;;5.60;99.90;;;;;;5059077;28;20052;-81
2020/12/06 11:57:06;;;;;;;17.08;10.73;;;5.60;99.90;;;;;;5058752;28;20038;-82
2020/12/06 11:59:32;;;;;;;16.70;9.45;;;5.50;99.90;;;;;;5045124;28;20046;-81
2020/12/06 12:01:59;;;;;;;15.45;9.25;;;5.70;99.90;;;;;;5047689;28;20049;-79
2020/12/06 12:04:25;;;;;;;14.65;9.02;;;5.70;99.90;;;;;;5048987;28;20065;-79
2020/12/06 12:06:52;;;;;;;13.63;8.75;;;5.70;99.90;;;;;;5049010;28;20122;-79
2020/12/06 12:09:19;;;;;;;13.70;8.13;;;5.70;99.90;;;;;;5048604;28;20049;-80
2020/12/06 12:11:47;;;;;;;11.73;7.72;;;5.80;99.90;;;;;;5046185;28;20053;-80
2020/12/06 12:14:13;;;;;;;12.52;7.85;;;5.70;99.90;;;;;;5055259;28;20048;-82
2020/12/06 12:16:44;;;;;;;10.85;6.70;;;5.70;99.90;;;;;;5055885;28;20073;-80
2020/12/06 12:19:11;;;;;;;11.65;7.38;;;5.70;99.90;;;;;;5057331;28;20080;-82
2020/12/06 12:21:38;;;;;;;11.10;7.10;;;5.80;99.90;;;;;;5024424;28;20041;-80
2020/12/06 12:24:04;;;;;;;11.82;7.35;;;5.80;99.70;;;;;;5052304;28;20052;-82
2020/12/06 12:26:31;;;;;;;11.32;7.03;;;5.80;99.90;;;;;;5054657;28;20079;-81
2020/12/06 12:28:58;;;;;;;11.85;7.50;;;5.70;99.90;;;;;;5054373;28;20119;-80
2020/12/06 12:31:25;;;;;;;12.82;7.38;;;5.70;99.90;;;;;;5052943;28;20056;-81
2020/12/06 12:33:54;;;;;;;12.10;7.50;;;5.50;99.90;;;;;;5053458;28;20076;-81
2020/12/06 12:36:20;;;;;;;14.32;8.98;;;5.40;99.90;;;;;;5055289;28;20045;-80
2020/12/06 12:38:47;;;;;;;14.40;8.82;;;5.30;99.90;;;;;;5055892;28;20065;-80
2020/12/06 12:41:15;;;;;;;17.58;9.60;;;5.30;99.90;;;;;;5055926;28;20060;-81
2020/12/06 12:43:42;;;;;;;13.48;8.35;;;5.30;99.90;;;;;;5056431;28;20050;-81
2020/12/06 12:46:09;;;;;;;13.25;9.02;;;5.30;99.90;;;;;;5055915;28;20081;-80
2020/12/06 12:48:36;;;;;;;14.95;9.00;;;5.30;99.90;;;;;;5052732;28;20387;-82
2020/12/06 12:51:03;;;;;;;12.55;8.20;;;5.30;99.90;;;;;;5051166;28;20081;-82
2020/12/06 12:53:29;;;;;;;11.35;7.40;;;5.40;99.90;;;;;;5071592;28;20049;-82
2020/12/06 12:55:56;;;;;;;12.65;6.75;;;5.50;99.90;;;;;;5071513;28;20049;-82
2020/12/06 12:58:23;;;;;;;10.13;6.53;;;5.50;99.90;;;;;;5058597;28;20073;-82
2020/12/06 13:00:49;;;;;;;9.25;6.18;;;5.60;99.90;;;;;;5050114;28;20041;-82
2020/12/06 13:03:18;;;;;;;9.35;6.00;;;5.60;99.90;;;;;;5051557;28;20094;-80
2020/12/06 13:05:45;;;;;;;9.38;5.70;;;5.70;99.90;;;;;;5039451;28;20030;-84
2020/12/06 13:08:12;;;;;;;10.25;6.00;;;5.70;99.90;;;;;;5059101;28;20041;-82
2020/12/06 13:10:39;;;;;;;9.13;6.03;;;5.70;99.90;;;;;;5059007;28;20045;-83
2020/12/06 13:15:41;;;;;;;9.50;5.32;;;5.80;99.90;;;;;;5046017;23;20038;-83
2020/12/06 13:18:08;;;;;;;8.20;4.90;;;5.60;99.80;;;;;;5017534;28;20105;-82
2020/12/06 13:20:36;;;;;;;18.27;10.68;;;5.80;99.90;;;;;;5017441;28;20034;-82
2020/12/06 13:23:08;;;;;;;9.73;5.75;;;5.80;99.80;;;;;;5015373;28;20069;-79
2020/12/06 13:25:35;;;;;;;7.85;5.68;;;5.70;99.70;;;;;;5002058;28;20050;-79
2020/12/06 13:28:01;;;;;;;8.68;5.40;;;5.70;99.90;;;;;;5010866;28;20054;-82
2020/12/06 13:30:28;;;;;;;8.90;5.40;;;5.60;99.90;;;;;;5009587;28;20047;-81
2020/12/06 13:32:55;;;;;;;7.78;5.05;;;5.50;99.90;;;;;;5002187;28;20047;-81
2020/12/06 13:35:22;;;;;;;7.13;4.60;;;5.60;99.90;;;;;;5005245;28;20444;-79
2020/12/06 13:37:50;;;;;;;7.60;4.97;;;5.50;99.90;;;;;;4988126;28;20049;-80
2020/12/06 13:40:16;;;;;;;7.97;5.25;;;5.40;99.90;;;;;;5005230;28;20084;-82
2020/12/06 13:42:43;;;;;;;7.93;4.85;;;5.40;99.90;;;;;;5007346;28;20085;-81
2020/12/06 13:45:09;;;;;;;7.10;4.80;;;5.40;99.90;;;;;;5005465;28;20129;-81
2020/12/06 13:47:36;;;;;;;7.22;5.05;;;5.40;99.90;;;;;;4997003;28;20077;-80
2020/12/06 13:50:03;;;;;;;6.88;4.88;;;5.40;99.90;;;;;;5007101;28;20042;-81
2020/12/06 13:52:30;;;;;;;8.80;5.50;;;5.40;99.90;;;;;;5008111;28;20057;-82
2020/12/06 13:55:00;;;;;;;9.48;6.45;;;5.30;99.90;;;;;;5007717;28;20069;-81
2020/12/06 13:57:27;;;;;;;8.10;5.78;;;5.30;99.90;;;;;;5010183;28;20081;-81
2020/12/06 13:59:53;;;;;;;8.65;6.20;;;5.20;99.90;;;;;;5010080;28;20053;-82
2020/12/06 14:02:20;;;;;;;10.40;5.72;;;5.30;99.90;;;;;;5011024;28;20556;-82
2020/12/06 14:04:46;;;;;;;9.85;6.25;;;5.30;99.90;;;;;;5012813;28;20078;-82
2020/12/06 14:07:16;;;;;;;11.25;8.57;;;5.30;99.90;;;;;;5015589;28;20058;-82
2020/12/06 14:09:42;;;;;;;9.98;6.75;;;5.40;99.90;;;;;;5019285;28;20055;-82
2020/12/06 14:12:10;;;;;;;10.35;6.20;;;5.40;99.90;;;;;;5020048;28;20054;-82
2020/12/06 14:14:36;;;;;;;8.95;6.05;;;5.50;99.90;;;;;;5021255;28;20065;-82
2020/12/06 14:17:03;;;;;;;9.30;6.53;;;5.60;99.90;;;;;;5020961;28;20054;-82
2020/12/06 14:19:29;;;;;;;10.15;6.28;;;5.60;99.90;;;;;;5021928;28;20027;-83
2020/12/06 14:21:56;;;;;;;10.07;6.30;;;5.60;99.90;;;;;;5022305;28;20055;-83
2020/12/06 14:24:23;;;;;;;9.25;6.47;;;5.50;99.80;;;;;;5022134;28;20042;-82
2020/12/06 14:26:50;;;;;;;9.88;6.53;;;5.60;99.90;;;;;;5021421;28;20054;-82
2020/12/06 14:29:19;;;;;;;9.05;6.20;;;5.50;99.90;;;;;;5021530;28;20050;-82
2020/12/06 14:31:47;;;;;;;9.60;6.53;;;5.60;99.90;;;;;;5020564;28;20519;-82
2020/12/06 14:34:14;;;;;;;7.88;5.60;;;5.60;99.90;;;;;;5019283;28;20065;-82
2020/12/06 14:36:41;;;;;;;8.75;5.75;;;5.70;99.90;;;;;;5019262;28;20049;-81
2020/12/06 14:39:08;;;;;;;9.20;5.90;;;5.70;99.90;;;;;;5017747;28;20065;-82
2020/12/06 14:41:35;;;;;;;8.32;5.00;;;5.70;99.70;;;;;;5018008;28;20057;-80
2020/12/06 14:44:02;;;;;;;8.40;5.43;;;5.70;99.70;;;;;;5183536;23;20064;-82
2020/12/06 14:46:30;;;;;;;8.18;5.60;;;5.60;99.70;;;;;;5061002;28;20049;-81
2020/12/06 14:48:56;;;;;;;7.95;5.47;;;5.60;99.70;;;;;;5060726;28;20037;-82
2020/12/06 14:51:23;;;;;;;7.30;4.75;;;5.60;99.70;;;;;;5060171;28;20033;-83
2020/12/06 14:53:51;;;;;;;7.32;4.78;;;5.70;99.60;;;;;;5058987;28;20052;-81
2020/12/06 14:56:17;;;;;;;8.38;5.00;;;5.70;99.80;;;;;;5044681;28;20030;-82
2020/12/06 14:58:44;;;;;;;8.45;5.80;;;5.60;99.60;;;;;;5061187;28;20034;-83
2020/12/06 15:01:11;;;;;;;8.50;5.80;;;5.80;99.70;;;;;;5060754;28;20056;-81
2020/12/06 15:03:38;;;;;;;9.77;6.47;;;5.60;99.80;;;;;;5055527;28;20068;-79
2020/12/06 15:06:05;;;;;;;9.25;6.40;;;5.60;99.90;;;;;;5049125;28;20071;-78
2020/12/06 15:08:32;;;;;;;9.48;6.10;;;5.60;99.90;;;;;;5051075;28;20069;-81
2020/12/06 15:10:58;;;;;;;9.63;6.90;;;5.50;99.90;;;;;;5054985;28;20072;-79
2020/12/06 15:13:25;;;;;;;8.73;5.93;;;5.60;99.90;;;;;;5056560;28;20024;-81
2020/12/06 15:15:51;;;;;;;10.00;6.63;;;5.60;99.90;;;;;;5057972;28;20048;-81
2020/12/06 15:18:18;;;;;;;8.30;6.50;;;5.50;99.90;;;;;;5057482;28;20045;-81
2020/12/06 15:20:47;;;;;;;8.38;5.97;;;5.60;99.90;;;;;;5058037;28;20069;-81
2020/12/06 15:31:00;;;;;;;10.70;7.10;;;5.60;99.90;;;;;;5569529;23;20086;-85
2020/12/06 15:41:16;;;;;;;9.65;6.93;;;5.70;99.90;;;;;;5813469;22;20042;-84
2020/12/06 15:43:46;;;;;;;8.80;6.18;;;5.80;99.90;;;;;;5060894;28;20037;-85
2020/12/06 15:53:59;;;;;;;9.90;6.70;;;5.80;99.90;;;;;;5510860;22;20038;-85
2020/12/06 15:59:03;;;;;;;10.98;7.75;;;5.70;99.90;;;;;;5852394;22;19912;-81
2020/12/06 16:09:16;;;;;;;10.32;7.55;;;5.60;99.90;;;;;;5961646;22;20052;-82
2020/12/06 16:19:30;;;;;;;10.68;7.85;;;5.70;99.90;;;;;;5555504;22;20108;-84
2020/12/06 16:22:00;;;;;;;11.88;8.68;;;5.80;99.90;;;;;;5060265;28;20052;-84
2020/12/06 16:24:27;;;;;;;10.52;7.45;;;5.80;99.90;;;;;;5060189;28;20044;-83
2020/12/06 16:29:31;;;;;;;9.32;6.93;;;5.80;99.90;;;;;;5118525;22;20051;-85
2020/12/06 16:31:58;;;;;;;10.68;7.55;;;6.00;99.90;;;;;;5060044;28;20030;-84
2020/12/06 16:34:25;;;;;;;12.60;8.65;;;5.90;99.90;;;;;;5059869;28;20033;-82
2020/12/06 16:42:58;;;;;;;10.00;6.93;;;5.90;99.90;;;;;;5352691;22;20073;-82
2020/12/06 17:03:34;;;;;;;12.63;8.73;;;5.80;99.90;;;;;;5635717;22;20062;-83
2020/12/06 17:06:01;;;;;;;14.70;9.40;;;5.80;99.90;;;;;;5056309;28;20045;-82
2020/12/06 17:08:28;;;;;;;12.50;8.52;;;5.80;99.90;;;;;;5045404;28;20103;-81
2020/12/06 17:10:54;;;;;;;12.23;9.35;;;5.60;99.90;;;;;;5049513;28;20049;-82
2020/12/06 17:13:21;;;;;;;12.77;9.18;;;5.50;99.90;;;;;;5048875;28;20056;-82
2020/12/06 17:15:47;;;;;;;14.30;9.88;;;5.50;99.90;;;;;;5048048;28;20092;-81
2020/12/06 17:18:14;;;;;;;15.23;10.25;;;5.60;99.90;;;;;;5045529;28;20065;-82
2020/12/06 17:20:42;;;;;;;14.77;10.50;;;5.50;99.90;;;;;;5048579;28;20056;-81
2020/12/06 17:23:13;;;;;;;13.95;10.35;;;5.50;99.90;;;;;;5049483;28;20046;-82
2020/12/06 17:25:40;;;;;;;14.52;9.80;;;5.60;99.90;;;;;;5039764;28;20116;-78
2020/12/06 17:28:07;;;;;;;15.48;10.38;;;5.60;99.90;;;;;;5035913;28;20068;-80
2020/12/06 17:30:33;;;;;;;14.33;10.30;;;5.60;99.90;;;;;;5031072;28;20084;-79
2020/12/06 17:33:00;;;;;;;16.95;11.70;;;5.60;99.90;;;;;;5034565;28;20827;-79
2020/12/06 17:35:27;;;;;;;16.50;11.38;;;5.60;99.90;;;;;;5033425;28;20052;-80
2020/12/06 17:37:54;;;;;;;15.02;10.43;;;5.70;99.90;;;;;;5028167;28;20118;-80
2020/12/06 17:40:21;;;;;;;16.85;10.82;;;5.50;99.90;;;;;;5035625;28;20056;-80
2020/12/06 17:42:48;;;;;;;13.73;10.32;;;5.50;99.90;;;;;;5040930;28;20064;-81
2020/12/06 17:45:15;;;;;;;16.08;11.40;;;5.50;99.90;;;;;;5042187;28;20133;-81
2020/12/06 17:47:42;;;;;;;15.63;11.35;;;5.40;99.90;;;;;;5041781;28;20073;-78
2020/12/06 17:50:08;;;;;;;16.52;11.07;;;5.50;99.90;;;;;;5033896;28;20125;-80
2020/12/06 17:52:36;;;;;;;14.93;9.93;;;5.50;99.90;;;;;;5037483;28;20045;-81
2020/12/06 17:55:03;;;;;;;18.13;11.90;;;5.40;99.90;;;;;;5033442;28;20089;-81
2020/12/06 17:57:30;;;;;;;15.45;10.43;;;5.40;99.90;;;;;;5034130;28;20128;-79
2020/12/06 17:59:57;;;;;;;16.55;11.25;;;5.40;99.90;;;;;;5205586;22;20076;-83
2020/12/06 18:02:24;;;;;;;15.70;10.70;;;5.40;99.90;;;;;;5058505;28;20025;-82
2020/12/06 18:04:53;;;;;;;15.80;11.07;;;5.20;99.90;;;;;;5057964;28;20065;-83
2020/12/06 18:07:23;;;;;;;14.88;9.38;;;5.40;99.90;;;;;;5057897;28;20079;-83
2020/12/06 18:09:50;;;;;;;14.55;9.38;;;5.40;99.90;;;;;;5386625;23;20047;-82
2020/12/06 18:12:18;;;;;;;13.75;8.48;;;5.20;99.90;;;;;;5007398;28;20050;-81
2020/12/06 18:14:45;;;;;;;13.27;8.93;;;5.30;99.90;;;;;;5006159;28;20038;-79
2020/12/06 18:17:11;;;;;;;12.85;8.90;;;5.20;99.90;;;;;;5006384;28;20104;-82
2020/12/06 18:19:38;;;;;;;13.05;8.60;;;5.30;99.90;;;;;;5011504;28;20061;-83
2020/12/06 18:22:05;;;;;;;13.30;8.27;;;5.20;99.90;;;;;;5009710;28;20113;-82
2020/12/06 18:24:32;;;;;;;14.35;8.93;;;5.40;99.90;;;;;;5007073;28;20074;-81
2020/12/06 18:27:01;;;;;;;12.57;8.90;;;5.30;99.90;;;;;;4996806;28;20050;-82
2020/12/06 18:29:32;;;;;;;11.10;7.22;;;5.30;99.90;;;;;;5009721;28;20077;-80
2020/12/06 18:31:59;;;;;;;11.48;7.63;;;5.20;99.90;;;;;;5368123;22;20103;-82
2020/12/06 18:37:02;;;;;;;12.25;8.05;;;5.00;99.90;;;;;;5707521;23;20115;-82
2020/12/06 18:39:28;;;;;;;13.18;8.27;;;5.10;99.90;;;;;;5056589;28;20076;-83
2020/12/06 18:44:32;;;;;;;11.68;6.03;;;5.30;99.90;;;;;;5158506;22;19921;-82
2020/12/06 18:46:59;;;;;;;8.65;5.43;;;5.30;99.90;;;;;;5055616;28;20033;-83
2020/12/06 18:52:01;;;;;;;8.27;5.43;;;5.40;99.80;;;;;;5940205;23;20050;-81
2020/12/06 18:54:29;;;;;;;8.05;4.93;;;5.40;99.70;;;;;;5013736;28;20050;-81
2020/12/06 18:56:58;;;;;;;7.30;4.53;;;5.30;99.80;;;;;;5013287;28;20042;-81
2020/12/06 18:59:25;;;;;;;8.13;4.93;;;5.30;99.80;;;;;;5005914;28;20042;-80
2020/12/06 19:01:52;;;;;;;7.78;4.70;;;5.20;99.80;;;;;;5003146;28;20080;-79
2020/12/06 19:04:19;;;;;;;5.88;4.10;;;5.20;99.80;;;;;;5005374;28;20073;-79
2020/12/06 19:06:45;;;;;;;8.40;4.75;;;5.20;99.90;;;;;;5003847;28;20057;-78
2020/12/06 19:09:12;;;;;;;9.25;4.03;;;5.20;99.80;;;;;;5002957;28;20471;-81
2020/12/06 19:11:38;;;;;;;6.32;4.05;;;5.20;99.70;;;;;;5002541;28;20137;-78
2020/12/06 19:14:05;;;;;;;6.63;4.38;;;5.10;99.80;;;;;;5000985;28;20129;-80
2020/12/06 19:16:31;;;;;;;6.38;4.20;;;5.00;99.90;;;;;;5003263;28;20129;-82
2020/12/06 19:18:59;;;;;;;7.50;3.80;;;5.10;99.90;;;;;;5008911;28;20077;-81
2020/12/06 19:21:25;;;;;;;7.35;3.92;;;5.00;99.90;;;;;;5010357;28;20054;-81
2020/12/06 19:26:27;;;;;;;5.70;3.70;;;4.90;99.90;;;;;;6030306;22;20039;-81
2020/12/06 19:28:54;;;;;;;6.25;3.85;;;5.10;99.90;;;;;;5061300;28;20072;-85
2020/12/06 19:31:23;;;;;;;6.20;3.90;;;4.90;99.90;;;;;;5061205;28;20041;-82
2020/12/06 19:33:50;;;;;;;6.38;4.10;;;4.80;99.90;;;;;;5061087;28;20056;-83
2020/12/06 19:36:20;;;;;;;7.47;4.43;;;5.00;99.90;;;;;;5061196;28;20029;-81
2020/12/06 19:38:47;;;;;;;7.45;4.78;;;4.70;99.90;;;;;;5061041;28;20034;-84
2020/12/06 19:41:14;;;;;;;8.00;4.85;;;4.60;99.90;;;;;;5061194;28;20025;-85
2020/12/06 20:48:28;;;;;;;10.15;6.78;;;3.40;99.90;;;;;;5716908;22;20049;-80
2020/12/06 20:50:55;;;;;;;9.77;6.55;;;3.40;99.90;;;;;;5023754;28;20395;-81
2020/12/06 20:53:22;;;;;;;9.18;6.35;;;3.40;99.90;;;;;;5037045;28;20053;-82
2020/12/06 20:55:49;;;;;;;9.52;6.45;;;3.30;99.90;;;;;;5045625;28;20045;-81
2020/12/06 20:58:16;;;;;;;9.77;6.68;;;3.20;99.90;;;;;;5047470;28;20056;-80
2020/12/06 21:00:42;;;;;;;10.43;6.55;;;3.40;99.90;;;;;;5045048;28;20549;-81
2020/12/06 21:03:10;;;;;;;9.52;6.38;;;3.40;99.90;;;;;;5047475;28;20080;-80
2020/12/06 21:05:37;;;;;;;9.02;6.20;;;3.20;99.90;;;;;;5055275;28;20068;-81
2020/12/06 21:08:04;;;;;;;9.57;6.22;;;3.10;99.90;;;;;;5053883;28;20054;-80
2020/12/06 21:10:31;;;;;;;9.18;6.32;;;3.10;99.90;;;;;;5054961;28;20036;-82
2020/12/06 21:12:58;;;;;;;8.45;5.88;;;3.10;99.90;;;;;;5055385;28;20037;-82
2020/12/06 21:15:25;;;;;;;8.90;6.10;;;2.90;99.90;;;;;;5055420;28;20049;-82
2020/12/06 21:17:52;;;;;;;8.70;6.05;;;2.80;99.90;;;;;;5053198;28;20033;-82
2020/12/06 21:20:19;;;;;;;8.38;5.57;;;2.60;99.90;;;;;;5051126;28;20049;-81
2020/12/06 21:22:47;;;;;;;8.50;5.70;;;2.70;99.90;;;;;;5057037;28;20041;-83
2020/12/06 21:25:15;;;;;;;9.15;5.95;;;2.60;99.90;;;;;;5059210;28;20045;-83
2020/12/06 21:27:42;;;;;;;8.68;5.32;;;2.60;99.90;;;;;;5058880;28;20033;-82
2020/12/06 21:30:09;;;;;;;8.85;5.80;;;2.60;99.90;;;;;;5433577;23;20051;-81
2020/12/06 21:32:38;;;;;;;7.28;4.93;;;2.60;99.90;;;;;;4979642;28;20043;-82
2020/12/06 21:35:08;;;;;;;7.40;4.95;;;2.70;99.90;;;;;;4975388;28;20038;-82
2020/12/06 21:37:41;;;;;;;7.97;5.13;;;2.80;99.90;;;;;;4975909;28;20040;-82
2020/12/06 21:40:09;;;;;;;7.18;4.60;;;2.80;99.90;;;;;;4967542;28;20032;-82
2020/12/06 21:42:41;;;;;;;7.68;5.18;;;2.90;99.90;;;;;;4957428;29;20044;-81
2020/12/06 21:45:10;;;;;;;8.43;5.35;;;2.90;99.90;;;;;;4959009;29;20055;-81
2020/12/06 21:47:41;;;;;;;7.55;5.32;;;3.00;99.90;;;;;;4975197;28;20035;-82
2020/12/06 21:50:08;;;;;;;6.72;5.07;;;3.20;99.90;;;;;;4966748;28;20047;-82
2020/12/06 21:52:35;;;;;;;7.45;5.00;;;2.90;99.90;;;;;;4970990;28;20047;-82
2020/12/06 21:55:02;;;;;;;7.93;5.00;;;3.00;99.90;;;;;;4975704;28;20058;-82
2020/12/06 21:57:33;;;;;;;10.68;5.38;;;3.00;99.90;;;;;;4967441;28;20122;-81
2020/12/06 22:00:01;;;;;;;8.35;5.55;;;2.90;99.90;;;;;;4968742;28;20106;-81
2020/12/06 22:02:28;;;;;;;8.05;5.18;;;2.80;99.90;;;;;;4971561;28;20152;-82
2020/12/06 22:04:55;;;;;;;7.82;5.03;;;2.80;99.90;;;;;;4970592;28;20051;-81
2020/12/06 22:07:22;;;;;;;7.13;4.80;;;2.80;99.90;;;;;;4970427;28;20051;-81
2020/12/06 22:09:50;;;;;;;7.40;4.85;;;2.90;99.90;;;;;;4963318;28;20058;-81
2020/12/06 22:12:19;;;;;;;7.70;5.22;;;2.80;99.90;;;;;;4960150;28;20055;-81
2020/12/06 22:14:47;;;;;;;7.82;4.90;;;2.90;99.90;;;;;;4954186;28;20051;-81
2020/12/06 22:17:16;;;;;;;7.70;4.93;;;2.70;99.90;;;;;;4946164;29;20083;-80
2020/12/06 22:19:43;;;;;;;8.45;4.68;;;2.70;99.90;;;;;;4956504;28;20104;-80
2020/12/06 22:22:10;;;;;;;7.75;5.00;;;2.70;99.90;;;;;;4956168;29;20070;-80
2020/12/06 22:24:36;;;;;;;7.03;4.68;;;2.70;99.90;;;;;;4956613;29;20036;-81